sensor_id;sensor_type;location;lat;lon;timestamp;P1;durP1;ratioP1;P2;durP2;ratioP2
50012;SDS011;35901;48.694;9.476;2022-11-15T00:01:07;16.17;;;12.47;;
50012;SDS011;35901;48.694;9.476;2022-11-15T00:03:52;12.83;;;11.10;;
50012;SDS011;35901;48.694;9.476;2022-11-15T00:06:36;11.30;;;9.80;;
50012;SDS011;35901;48.694;9.476;2022-11-15T00:09:20;11.47;;;10.10;;
50012;SDS011;35901;48.694;9.476;2022-11-15T00:12:05;13.10;;;10.70;;
50012;SDS011;35901;48.694;9.476;2022-11-15T00:14:49;10.67;;;9.50;;
50012;SDS011;35901;48.694;9.476;2022-11-15T00:17:33;12.57;;;10.43;;
50012;SDS011;35901;48.694;9.476;2022-11-15T00:20:17;12.90;;;9.93;;
50012;SDS011;35901;48.694;9.476;2022-11-15T00:23:02;11.43;;;10.17;;
50012;SDS011;35901;48.694;9.476;2022-11-15T00:25:54;12.03;;;9.93;;
50012;SDS011;35901;48.694;9.476;2022-11-15T00:28:45;11.87;;;9.10;;
50012;SDS011;35901;48.694;9.476;2022-11-15T00:31:29;11.37;;;10.17;;
50012;SDS011;35901;48.694;9.476;2022-11-15T00:34:14;10.40;;;9.27;;
50012;SDS011;35901;48.694;9.476;2022-11-15T00:36:58;9.80;;;8.80;;
50012;SDS011;35901;48.694;9.476;2022-11-15T00:39:42;11.33;;;9.83;;
50012;SDS011;35901;48.694;9.476;2022-11-15T00:42:26;10.87;;;9.40;;
50012;SDS011;35901;48.694;9.476;2022-11-15T00:45:10;10.30;;;9.20;;
50012;SDS011;35901;48.694;9.476;2022-11-15T00:47:54;12.17;;;10.17;;
50012;SDS011;35901;48.694;9.476;2022-11-15T00:50:38;9.70;;;8.57;;
50012;SDS011;35901;48.694;9.476;2022-11-15T00:53:22;12.50;;;9.97;;
50012;SDS011;35901;48.694;9.476;2022-11-15T00:56:06;10.93;;;9.53;;
50012;SDS011;35901;48.694;9.476;2022-11-15T00:58:52;10.53;;;8.83;;
50012;SDS011;35901;48.694;9.476;2022-11-15T01:01:36;11.50;;;9.47;;
50012;SDS011;35901;48.694;9.476;2022-11-15T01:04:20;10.03;;;8.77;;
50012;SDS011;35901;48.694;9.476;2022-11-15T01:07:05;9.83;;;8.83;;
50012;SDS011;35901;48.694;9.476;2022-11-15T01:09:49;11.40;;;9.23;;
50012;SDS011;35901;48.694;9.476;2022-11-15T01:12:33;9.40;;;8.37;;
50012;SDS011;35901;48.694;9.476;2022-11-15T01:15:17;10.50;;;8.73;;
50012;SDS011;35901;48.694;9.476;2022-11-15T01:18:01;11.77;;;9.00;;
50012;SDS011;35901;48.694;9.476;2022-11-15T01:20:46;13.10;;;10.50;;
50012;SDS011;35901;48.694;9.476;2022-11-15T01:23:30;11.83;;;10.17;;
50012;SDS011;35901;48.694;9.476;2022-11-15T01:26:14;12.70;;;11.27;;
50012;SDS011;35901;48.694;9.476;2022-11-15T01:28:59;17.63;;;12.03;;
50012;SDS011;35901;48.694;9.476;2022-11-15T01:31:43;12.90;;;11.23;;
50012;SDS011;35901;48.694;9.476;2022-11-15T01:34:27;14.97;;;11.37;;
50012;SDS011;35901;48.694;9.476;2022-11-15T01:37:11;12.10;;;10.30;;
50012;SDS011;35901;48.694;9.476;2022-11-15T01:39:55;12.63;;;10.37;;
50012;SDS011;35901;48.694;9.476;2022-11-15T01:42:39;16.87;;;11.30;;
50012;SDS011;35901;48.694;9.476;2022-11-15T01:45:23;12.43;;;11.00;;
50012;SDS011;35901;48.694;9.476;2022-11-15T01:48:07;12.67;;;10.47;;
50012;SDS011;35901;48.694;9.476;2022-11-15T01:50:54;13.87;;;11.37;;
50012;SDS011;35901;48.694;9.476;2022-11-15T01:53:39;15.27;;;11.33;;
50012;SDS011;35901;48.694;9.476;2022-11-15T01:56:27;11.30;;;9.83;;
50012;SDS011;35901;48.694;9.476;2022-11-15T01:59:15;11.03;;;9.33;;
50012;SDS011;35901;48.694;9.476;2022-11-15T02:01:59;13.13;;;11.00;;
50012;SDS011;35901;48.694;9.476;2022-11-15T02:04:45;13.00;;;10.30;;
50012;SDS011;35901;48.694;9.476;2022-11-15T02:07:30;10.60;;;9.47;;
50012;SDS011;35901;48.694;9.476;2022-11-15T02:10:20;10.80;;;9.60;;
50012;SDS011;35901;48.694;9.476;2022-11-15T02:13:06;9.67;;;8.67;;
50012;SDS011;35901;48.694;9.476;2022-11-15T02:22:33;12.40;;;9.20;;
50012;SDS011;35901;48.694;9.476;2022-11-15T02:29:07;11.67;;;9.30;;
50012;SDS011;35901;48.694;9.476;2022-11-15T02:38:34;13.27;;;10.23;;
50012;SDS011;35901;48.694;9.476;2022-11-15T02:43:54;14.13;;;10.47;;
50012;SDS011;35901;48.694;9.476;2022-11-15T02:46:48;15.53;;;11.57;;
50012;SDS011;35901;48.694;9.476;2022-11-15T02:49:56;16.53;;;11.73;;
50012;SDS011;35901;48.694;9.476;2022-11-15T02:52:50;16.17;;;11.50;;
50012;SDS011;35901;48.694;9.476;2022-11-15T02:55:38;13.27;;;10.60;;
50012;SDS011;35901;48.694;9.476;2022-11-15T03:04:52;10.70;;;9.10;;
50012;SDS011;35901;48.694;9.476;2022-11-15T03:07:40;14.00;;;10.27;;
50012;SDS011;35901;48.694;9.476;2022-11-15T03:10:40;13.23;;;10.10;;
50012;SDS011;35901;48.694;9.476;2022-11-15T03:17:16;12.37;;;10.00;;
50012;SDS011;35901;48.694;9.476;2022-11-15T03:19:53;15.27;;;11.17;;
50012;SDS011;35901;48.694;9.476;2022-11-15T03:22:40;13.20;;;11.17;;
50012;SDS011;35901;48.694;9.476;2022-11-15T03:25:27;9.87;;;8.77;;
50012;SDS011;35901;48.694;9.476;2022-11-15T03:28:16;11.10;;;9.90;;
50012;SDS011;35901;48.694;9.476;2022-11-15T03:31:12;15.03;;;11.80;;
50012;SDS011;35901;48.694;9.476;2022-11-15T03:34:24;11.97;;;9.80;;
50012;SDS011;35901;48.694;9.476;2022-11-15T03:37:13;15.03;;;11.40;;
50012;SDS011;35901;48.694;9.476;2022-11-15T03:39:59;14.17;;;11.30;;
50012;SDS011;35901;48.694;9.476;2022-11-15T03:42:46;17.17;;;12.93;;
50012;SDS011;35901;48.694;9.476;2022-11-15T03:45:39;15.77;;;12.50;;
50012;SDS011;35901;48.694;9.476;2022-11-15T03:48:30;16.20;;;12.43;;
50012;SDS011;35901;48.694;9.476;2022-11-15T03:51:19;17.00;;;13.27;;
50012;SDS011;35901;48.694;9.476;2022-11-15T03:54:04;16.87;;;13.60;;
50012;SDS011;35901;48.694;9.476;2022-11-15T03:56:48;19.57;;;14.97;;
50012;SDS011;35901;48.694;9.476;2022-11-15T03:59:32;15.23;;;11.97;;
50012;SDS011;35901;48.694;9.476;2022-11-15T04:02:16;15.97;;;12.33;;
50012;SDS011;35901;48.694;9.476;2022-11-15T04:05:00;16.30;;;12.87;;
50012;SDS011;35901;48.694;9.476;2022-11-15T04:07:44;13.13;;;10.33;;
50012;SDS011;35901;48.694;9.476;2022-11-15T04:10:29;16.13;;;11.73;;
50012;SDS011;35901;48.694;9.476;2022-11-15T04:13:13;12.53;;;10.77;;
50012;SDS011;35901;48.694;9.476;2022-11-15T04:15:59;14.83;;;11.53;;
50012;SDS011;35901;48.694;9.476;2022-11-15T04:18:43;15.00;;;11.50;;
50012;SDS011;35901;48.694;9.476;2022-11-15T04:21:27;15.13;;;11.47;;
50012;SDS011;35901;48.694;9.476;2022-11-15T04:24:29;12.73;;;9.87;;
50012;SDS011;35901;48.694;9.476;2022-11-15T04:27:14;14.43;;;11.50;;
50012;SDS011;35901;48.694;9.476;2022-11-15T04:29:58;12.70;;;10.33;;
50012;SDS011;35901;48.694;9.476;2022-11-15T04:32:42;12.77;;;10.17;;
50012;SDS011;35901;48.694;9.476;2022-11-15T04:35:31;18.20;;;14.60;;
50012;SDS011;35901;48.694;9.476;2022-11-15T04:38:15;19.37;;;15.57;;
50012;SDS011;35901;48.694;9.476;2022-11-15T04:40:59;18.30;;;14.83;;
50012;SDS011;35901;48.694;9.476;2022-11-15T04:43:43;16.23;;;12.93;;
50012;SDS011;35901;48.694;9.476;2022-11-15T04:46:28;15.67;;;12.80;;
50012;SDS011;35901;48.694;9.476;2022-11-15T04:49:12;14.10;;;12.17;;
50012;SDS011;35901;48.694;9.476;2022-11-15T04:51:56;15.33;;;11.77;;
50012;SDS011;35901;48.694;9.476;2022-11-15T04:54:40;14.37;;;11.97;;
50012;SDS011;35901;48.694;9.476;2022-11-15T04:57:25;12.93;;;10.77;;
50012;SDS011;35901;48.694;9.476;2022-11-15T05:00:11;12.30;;;10.87;;
50012;SDS011;35901;48.694;9.476;2022-11-15T05:02:57;14.67;;;11.57;;
50012;SDS011;35901;48.694;9.476;2022-11-15T05:06:00;16.23;;;13.60;;
50012;SDS011;35901;48.694;9.476;2022-11-15T05:08:45;20.20;;;14.97;;
50012;SDS011;35901;48.694;9.476;2022-11-15T05:11:29;22.80;;;15.23;;
50012;SDS011;35901;48.694;9.476;2022-11-15T05:14:14;23.23;;;15.27;;
50012;SDS011;35901;48.694;9.476;2022-11-15T05:16:59;22.37;;;15.50;;
50012;SDS011;35901;48.694;9.476;2022-11-15T05:19:43;22.60;;;16.80;;
50012;SDS011;35901;48.694;9.476;2022-11-15T05:22:28;25.53;;;17.10;;
50012;SDS011;35901;48.694;9.476;2022-11-15T05:25:12;20.80;;;16.00;;
50012;SDS011;35901;48.694;9.476;2022-11-15T05:27:56;20.00;;;15.33;;
50012;SDS011;35901;48.694;9.476;2022-11-15T05:30:40;19.80;;;14.67;;
50012;SDS011;35901;48.694;9.476;2022-11-15T05:33:25;20.27;;;14.47;;
50012;SDS011;35901;48.694;9.476;2022-11-15T05:36:21;16.17;;;11.70;;
50012;SDS011;35901;48.694;9.476;2022-11-15T05:39:18;19.43;;;13.43;;
50012;SDS011;35901;48.694;9.476;2022-11-15T05:42:06;21.43;;;13.67;;
50012;SDS011;35901;48.694;9.476;2022-11-15T05:44:57;21.30;;;14.30;;
50012;SDS011;35901;48.694;9.476;2022-11-15T05:47:43;19.43;;;13.70;;
50012;SDS011;35901;48.694;9.476;2022-11-15T05:50:28;17.87;;;13.20;;
50012;SDS011;35901;48.694;9.476;2022-11-15T05:53:14;18.50;;;13.30;;
50012;SDS011;35901;48.694;9.476;2022-11-15T05:56:00;19.13;;;13.77;;
50012;SDS011;35901;48.694;9.476;2022-11-15T05:58:44;15.50;;;11.60;;
50012;SDS011;35901;48.694;9.476;2022-11-15T06:01:29;17.67;;;13.70;;
50012;SDS011;35901;48.694;9.476;2022-11-15T06:04:14;18.67;;;13.40;;
50012;SDS011;35901;48.694;9.476;2022-11-15T06:06:58;21.20;;;15.30;;
50012;SDS011;35901;48.694;9.476;2022-11-15T06:09:42;21.40;;;15.33;;
50012;SDS011;35901;48.694;9.476;2022-11-15T06:12:26;22.40;;;15.83;;
50012;SDS011;35901;48.694;9.476;2022-11-15T06:15:10;17.43;;;13.07;;
50012;SDS011;35901;48.694;9.476;2022-11-15T06:17:57;19.70;;;13.87;;
50012;SDS011;35901;48.694;9.476;2022-11-15T06:20:42;22.40;;;14.83;;
50012;SDS011;35901;48.694;9.476;2022-11-15T06:23:26;22.90;;;14.33;;
50012;SDS011;35901;48.694;9.476;2022-11-15T06:26:11;19.03;;;13.30;;
50012;SDS011;35901;48.694;9.476;2022-11-15T06:28:55;17.10;;;12.30;;
50012;SDS011;35901;48.694;9.476;2022-11-15T06:31:39;18.03;;;13.27;;
50012;SDS011;35901;48.694;9.476;2022-11-15T06:34:23;20.70;;;13.60;;
50012;SDS011;35901;48.694;9.476;2022-11-15T06:37:08;20.50;;;13.63;;
50012;SDS011;35901;48.694;9.476;2022-11-15T06:39:52;17.03;;;12.00;;
50012;SDS011;35901;48.694;9.476;2022-11-15T06:42:36;18.07;;;14.27;;
50012;SDS011;35901;48.694;9.476;2022-11-15T06:45:20;20.87;;;14.30;;
50012;SDS011;35901;48.694;9.476;2022-11-15T06:48:04;19.17;;;14.23;;
50012;SDS011;35901;48.694;9.476;2022-11-15T06:50:52;24.20;;;17.03;;
50012;SDS011;35901;48.694;9.476;2022-11-15T06:53:37;27.37;;;14.37;;
50012;SDS011;35901;48.694;9.476;2022-11-15T06:56:21;70.67;;;14.53;;
50012;SDS011;35901;48.694;9.476;2022-11-15T06:59:06;20.43;;;15.53;;
50012;SDS011;35901;48.694;9.476;2022-11-15T07:01:50;15.50;;;12.23;;
50012;SDS011;35901;48.694;9.476;2022-11-15T07:04:34;14.50;;;12.60;;
50012;SDS011;35901;48.694;9.476;2022-11-15T07:07:19;14.27;;;11.40;;
50012;SDS011;35901;48.694;9.476;2022-11-15T07:10:03;11.43;;;10.10;;
50012;SDS011;35901;48.694;9.476;2022-11-15T07:12:49;10.53;;;9.47;;
50012;SDS011;35901;48.694;9.476;2022-11-15T07:15:34;10.77;;;9.20;;
50012;SDS011;35901;48.694;9.476;2022-11-15T07:18:18;12.47;;;11.17;;
50012;SDS011;35901;48.694;9.476;2022-11-15T07:21:06;10.60;;;9.50;;
50012;SDS011;35901;48.694;9.476;2022-11-15T07:23:52;10.33;;;9.20;;
50012;SDS011;35901;48.694;9.476;2022-11-15T07:26:36;9.37;;;8.37;;
50012;SDS011;35901;48.694;9.476;2022-11-15T07:29:20;7.83;;;7.03;;
50012;SDS011;35901;48.694;9.476;2022-11-15T07:32:04;8.13;;;7.33;;
50012;SDS011;35901;48.694;9.476;2022-11-15T07:34:48;8.03;;;7.10;;
50012;SDS011;35901;48.694;9.476;2022-11-15T07:37:32;7.00;;;6.30;;
50012;SDS011;35901;48.694;9.476;2022-11-15T07:40:16;8.23;;;7.33;;
50012;SDS011;35901;48.694;9.476;2022-11-15T07:43:01;7.27;;;6.50;;
50012;SDS011;35901;48.694;9.476;2022-11-15T07:45:46;7.60;;;6.90;;
50012;SDS011;35901;48.694;9.476;2022-11-15T07:48:31;7.83;;;7.03;;
50012;SDS011;35901;48.694;9.476;2022-11-15T07:51:16;11.97;;;10.50;;
50012;SDS011;35901;48.694;9.476;2022-11-15T07:54:00;13.83;;;11.93;;
50012;SDS011;35901;48.694;9.476;2022-11-15T07:56:44;16.00;;;11.90;;
50012;SDS011;35901;48.694;9.476;2022-11-15T07:59:28;13.70;;;12.27;;
50012;SDS011;35901;48.694;9.476;2022-11-15T08:02:12;14.93;;;12.83;;
50012;SDS011;35901;48.694;9.476;2022-11-15T08:04:57;14.03;;;10.40;;
50012;SDS011;35901;48.694;9.476;2022-11-15T08:07:41;9.83;;;8.83;;
50012;SDS011;35901;48.694;9.476;2022-11-15T08:10:26;9.67;;;8.67;;
50012;SDS011;35901;48.694;9.476;2022-11-15T08:13:11;11.37;;;7.17;;
50012;SDS011;35901;48.694;9.476;2022-11-15T08:16:00;8.03;;;6.80;;
50012;SDS011;35901;48.694;9.476;2022-11-15T08:18:44;7.50;;;6.47;;
50012;SDS011;35901;48.694;9.476;2022-11-15T08:21:29;6.67;;;5.93;;
50012;SDS011;35901;48.694;9.476;2022-11-15T08:24:14;5.63;;;5.13;;
50012;SDS011;35901;48.694;9.476;2022-11-15T08:26:58;10.47;;;5.33;;
50012;SDS011;35901;48.694;9.476;2022-11-15T08:29:42;6.60;;;5.27;;
50012;SDS011;35901;48.694;9.476;2022-11-15T08:32:27;4.87;;;4.43;;
50012;SDS011;35901;48.694;9.476;2022-11-15T08:35:11;5.20;;;4.70;;
50012;SDS011;35901;48.694;9.476;2022-11-15T08:37:55;4.50;;;4.10;;
50012;SDS011;35901;48.694;9.476;2022-11-15T08:40:39;4.63;;;4.03;;
50012;SDS011;35901;48.694;9.476;2022-11-15T08:43:24;7.30;;;4.73;;
50012;SDS011;35901;48.694;9.476;2022-11-15T08:46:11;6.07;;;4.70;;
50012;SDS011;35901;48.694;9.476;2022-11-15T08:48:57;5.33;;;4.73;;
50012;SDS011;35901;48.694;9.476;2022-11-15T08:51:41;5.70;;;5.10;;
50012;SDS011;35901;48.694;9.476;2022-11-15T08:54:26;6.63;;;5.93;;
50012;SDS011;35901;48.694;9.476;2022-11-15T08:57:10;6.73;;;5.63;;
50012;SDS011;35901;48.694;9.476;2022-11-15T08:59:54;7.27;;;6.17;;
50012;SDS011;35901;48.694;9.476;2022-11-15T09:02:39;6.83;;;5.53;;
50012;SDS011;35901;48.694;9.476;2022-11-15T09:05:23;6.10;;;5.23;;
50012;SDS011;35901;48.694;9.476;2022-11-15T09:08:07;8.07;;;5.70;;
50012;SDS011;35901;48.694;9.476;2022-11-15T09:10:51;6.67;;;6.00;;
50012;SDS011;35901;48.694;9.476;2022-11-15T09:13:36;9.03;;;7.07;;
50012;SDS011;35901;48.694;9.476;2022-11-15T09:16:21;11.30;;;7.77;;
50012;SDS011;35901;48.694;9.476;2022-11-15T09:19:05;10.37;;;6.70;;
50012;SDS011;35901;48.694;9.476;2022-11-15T09:21:50;8.67;;;6.77;;
50012;SDS011;35901;48.694;9.476;2022-11-15T09:24:34;7.03;;;6.30;;
50012;SDS011;35901;48.694;9.476;2022-11-15T09:27:19;6.47;;;5.87;;
50012;SDS011;35901;48.694;9.476;2022-11-15T09:30:03;5.83;;;5.33;;
50012;SDS011;35901;48.694;9.476;2022-11-15T09:32:47;7.10;;;5.53;;
50012;SDS011;35901;48.694;9.476;2022-11-15T09:35:32;5.73;;;5.13;;
50012;SDS011;35901;48.694;9.476;2022-11-15T09:38:16;5.43;;;4.93;;
50012;SDS011;35901;48.694;9.476;2022-11-15T09:44:16;6.63;;;5.40;;
50012;SDS011;35901;48.694;9.476;2022-11-15T09:53:13;8.97;;;6.07;;
50012;SDS011;35901;48.694;9.476;2022-11-15T09:56:43;6.97;;;5.60;;
50012;SDS011;35901;48.694;9.476;2022-11-15T09:58:59;5.70;;;5.10;;
50012;SDS011;35901;48.694;9.476;2022-11-15T10:01:55;6.47;;;5.77;;
50012;SDS011;35901;48.694;9.476;2022-11-15T10:04:41;6.47;;;5.50;;
50012;SDS011;35901;48.694;9.476;2022-11-15T10:07:14;7.30;;;5.17;;
50012;SDS011;35901;48.694;9.476;2022-11-15T10:09:53;7.00;;;5.40;;
50012;SDS011;35901;48.694;9.476;2022-11-15T10:12:22;5.70;;;5.20;;
50012;SDS011;35901;48.694;9.476;2022-11-15T10:14:49;5.40;;;4.90;;
50012;SDS011;35901;48.694;9.476;2022-11-15T10:17:25;5.73;;;5.10;;
50012;SDS011;35901;48.694;9.476;2022-11-15T10:20:12;5.77;;;4.80;;
50012;SDS011;35901;48.694;9.476;2022-11-15T10:22:46;7.47;;;4.97;;
50012;SDS011;35901;48.694;9.476;2022-11-15T10:27:53;5.63;;;4.93;;
50012;SDS011;35901;48.694;9.476;2022-11-15T10:30:21;6.13;;;5.53;;
50012;SDS011;35901;48.694;9.476;2022-11-15T10:32:48;5.70;;;5.20;;
50012;SDS011;35901;48.694;9.476;2022-11-15T10:37:43;6.27;;;5.60;;
50012;SDS011;35901;48.694;9.476;2022-11-15T10:40:19;5.30;;;4.80;;
50012;SDS011;35901;48.694;9.476;2022-11-15T10:42:48;6.97;;;5.40;;
50012;SDS011;35901;48.694;9.476;2022-11-15T10:45:29;6.53;;;5.33;;
50012;SDS011;35901;48.694;9.476;2022-11-15T10:50:37;7.90;;;5.47;;
50012;SDS011;35901;48.694;9.476;2022-11-15T10:53:21;7.93;;;5.60;;
50012;SDS011;35901;48.694;9.476;2022-11-15T10:55:56;6.00;;;5.40;;
50012;SDS011;35901;48.694;9.476;2022-11-15T11:03:44;8.13;;;6.80;;
50012;SDS011;35901;48.694;9.476;2022-11-15T11:06:24;6.57;;;5.67;;
50012;SDS011;35901;48.694;9.476;2022-11-15T11:09:00;6.43;;;5.67;;
50012;SDS011;35901;48.694;9.476;2022-11-15T11:11:44;6.07;;;5.47;;
50012;SDS011;35901;48.694;9.476;2022-11-15T11:14:11;6.17;;;5.60;;
50012;SDS011;35901;48.694;9.476;2022-11-15T11:16:42;7.23;;;6.23;;
50012;SDS011;35901;48.694;9.476;2022-11-15T11:24:36;5.07;;;4.50;;
50012;SDS011;35901;48.694;9.476;2022-11-15T11:32:56;4.77;;;4.27;;
50012;SDS011;35901;48.694;9.476;2022-11-15T11:35:30;4.33;;;3.93;;
50012;SDS011;35901;48.694;9.476;2022-11-15T11:47:12;7.33;;;6.33;;
50012;SDS011;35901;48.694;9.476;2022-11-15T11:49:45;8.40;;;6.63;;
50012;SDS011;35901;48.694;9.476;2022-11-15T12:03:00;10.87;;;7.80;;
50012;SDS011;35901;48.694;9.476;2022-11-15T12:05:49;9.23;;;6.43;;
50012;SDS011;35901;48.694;9.476;2022-11-15T12:11:21;9.57;;;6.40;;
50012;SDS011;35901;48.694;9.476;2022-11-15T12:13:59;8.27;;;6.20;;
50012;SDS011;35901;48.694;9.476;2022-11-15T12:16:29;7.83;;;6.00;;
50012;SDS011;35901;48.694;9.476;2022-11-15T12:18:59;7.13;;;5.83;;
50012;SDS011;35901;48.694;9.476;2022-11-15T12:24:02;8.43;;;6.13;;
50012;SDS011;35901;48.694;9.476;2022-11-15T12:26:37;7.43;;;6.10;;
50012;SDS011;35901;48.694;9.476;2022-11-15T12:29:13;6.27;;;5.63;;
50012;SDS011;35901;48.694;9.476;2022-11-15T12:31:44;6.10;;;5.50;;
50012;SDS011;35901;48.694;9.476;2022-11-15T12:36:47;5.67;;;5.17;;
50012;SDS011;35901;48.694;9.476;2022-11-15T12:39:14;6.10;;;5.23;;
50012;SDS011;35901;48.694;9.476;2022-11-15T12:41:42;6.07;;;5.50;;
50012;SDS011;35901;48.694;9.476;2022-11-15T12:44:13;6.00;;;5.30;;
50012;SDS011;35901;48.694;9.476;2022-11-15T12:52:03;6.07;;;5.47;;
50012;SDS011;35901;48.694;9.476;2022-11-15T13:02:33;5.07;;;4.57;;
50012;SDS011;35901;48.694;9.476;2022-11-15T13:17:39;5.97;;;4.40;;
50012;SDS011;35901;48.694;9.476;2022-11-15T13:22:43;6.03;;;4.13;;
50012;SDS011;35901;48.694;9.476;2022-11-15T13:33:19;5.03;;;4.60;;
50012;SDS011;35901;48.694;9.476;2022-11-15T13:35:59;6.37;;;4.73;;
50012;SDS011;35901;48.694;9.476;2022-11-15T13:38:30;6.20;;;4.80;;
50012;SDS011;35901;48.694;9.476;2022-11-15T13:40:58;5.30;;;4.80;;
50012;SDS011;35901;48.694;9.476;2022-11-15T13:43:35;5.70;;;4.93;;
50012;SDS011;35901;48.694;9.476;2022-11-15T13:46:11;6.43;;;4.70;;
50012;SDS011;35901;48.694;9.476;2022-11-15T13:48:41;6.03;;;4.70;;
50012;SDS011;35901;48.694;9.476;2022-11-15T13:53:59;5.37;;;4.70;;
50012;SDS011;35901;48.694;9.476;2022-11-15T13:56:51;5.13;;;4.60;;
50012;SDS011;35901;48.694;9.476;2022-11-15T13:59:30;5.80;;;5.20;;
50012;SDS011;35901;48.694;9.476;2022-11-15T14:02:02;6.00;;;5.00;;
50012;SDS011;35901;48.694;9.476;2022-11-15T14:04:36;6.97;;;5.30;;
50012;SDS011;35901;48.694;9.476;2022-11-15T14:07:16;6.03;;;5.10;;
50012;SDS011;35901;48.694;9.476;2022-11-15T14:09:44;6.67;;;6.00;;
50012;SDS011;35901;48.694;9.476;2022-11-15T14:12:27;6.67;;;5.37;;
50012;SDS011;35901;48.694;9.476;2022-11-15T14:14:56;5.73;;;5.20;;
50012;SDS011;35901;48.694;9.476;2022-11-15T14:19:55;8.57;;;5.70;;
50012;SDS011;35901;48.694;9.476;2022-11-15T14:22:26;7.20;;;5.57;;
50012;SDS011;35901;48.694;9.476;2022-11-15T14:27:38;6.60;;;5.90;;
50012;SDS011;35901;48.694;9.476;2022-11-15T14:30:04;5.63;;;5.00;;
50012;SDS011;35901;48.694;9.476;2022-11-15T14:32:44;5.57;;;5.07;;
50012;SDS011;35901;48.694;9.476;2022-11-15T14:35:14;7.67;;;6.30;;
50012;SDS011;35901;48.694;9.476;2022-11-15T14:37:44;6.77;;;5.43;;
50012;SDS011;35901;48.694;9.476;2022-11-15T14:40:14;7.00;;;6.17;;
50012;SDS011;35901;48.694;9.476;2022-11-15T14:42:44;9.17;;;6.97;;
50012;SDS011;35901;48.694;9.476;2022-11-15T14:45:17;10.07;;;6.60;;
50012;SDS011;35901;48.694;9.476;2022-11-15T14:47:45;10.23;;;7.33;;
50012;SDS011;35901;48.694;9.476;2022-11-15T14:50:12;10.37;;;8.33;;
50012;SDS011;35901;48.694;9.476;2022-11-15T14:52:42;9.63;;;7.63;;
50012;SDS011;35901;48.694;9.476;2022-11-15T14:55:14;9.30;;;7.43;;
50012;SDS011;35901;48.694;9.476;2022-11-15T14:57:45;10.73;;;7.63;;
50012;SDS011;35901;48.694;9.476;2022-11-15T15:00:11;9.00;;;6.97;;
50012;SDS011;35901;48.694;9.476;2022-11-15T15:02:38;9.40;;;7.10;;
50012;SDS011;35901;48.694;9.476;2022-11-15T15:05:17;6.73;;;6.03;;
50012;SDS011;35901;48.694;9.476;2022-11-15T15:07:46;9.33;;;7.00;;
50012;SDS011;35901;48.694;9.476;2022-11-15T15:10:13;8.90;;;6.93;;
50012;SDS011;35901;48.694;9.476;2022-11-15T15:12:40;8.90;;;6.93;;
50012;SDS011;35901;48.694;9.476;2022-11-15T15:15:09;7.07;;;6.03;;
50012;SDS011;35901;48.694;9.476;2022-11-15T15:17:39;7.40;;;6.63;;
50012;SDS011;35901;48.694;9.476;2022-11-15T15:20:05;9.33;;;6.70;;
50012;SDS011;35901;48.694;9.476;2022-11-15T15:22:32;8.40;;;6.77;;
50012;SDS011;35901;48.694;9.476;2022-11-15T15:24:58;12.97;;;9.40;;
50012;SDS011;35901;48.694;9.476;2022-11-15T15:27:23;10.03;;;7.47;;
50012;SDS011;35901;48.694;9.476;2022-11-15T15:29:50;8.57;;;7.50;;
50012;SDS011;35901;48.694;9.476;2022-11-15T15:32:16;7.73;;;6.70;;
50012;SDS011;35901;48.694;9.476;2022-11-15T15:34:42;8.37;;;6.87;;
50012;SDS011;35901;48.694;9.476;2022-11-15T15:37:24;7.67;;;6.87;;
50012;SDS011;35901;48.694;9.476;2022-11-15T15:39:51;6.77;;;5.93;;
50012;SDS011;35901;48.694;9.476;2022-11-15T15:42:18;6.57;;;5.20;;
50012;SDS011;35901;48.694;9.476;2022-11-15T15:44:45;5.43;;;4.70;;
50012;SDS011;35901;48.694;9.476;2022-11-15T15:47:12;5.13;;;4.30;;
50012;SDS011;35901;48.694;9.476;2022-11-15T15:49:39;5.33;;;3.97;;
50012;SDS011;35901;48.694;9.476;2022-11-15T15:52:05;6.60;;;5.90;;
50012;SDS011;35901;48.694;9.476;2022-11-15T15:54:31;7.43;;;4.80;;
50012;SDS011;35901;48.694;9.476;2022-11-15T15:56:57;5.10;;;4.57;;
50012;SDS011;35901;48.694;9.476;2022-11-15T15:59:23;6.80;;;4.47;;
50012;SDS011;35901;48.694;9.476;2022-11-15T16:01:49;6.07;;;5.30;;
50012;SDS011;35901;48.694;9.476;2022-11-15T16:04:15;8.30;;;7.37;;
50012;SDS011;35901;48.694;9.476;2022-11-15T16:06:40;7.90;;;6.93;;
50012;SDS011;35901;48.694;9.476;2022-11-15T16:09:13;6.47;;;5.60;;
50012;SDS011;35901;48.694;9.476;2022-11-15T16:11:40;6.63;;;5.77;;
50012;SDS011;35901;48.694;9.476;2022-11-15T16:14:08;10.53;;;8.47;;
50012;SDS011;35901;48.694;9.476;2022-11-15T16:16:34;9.67;;;8.50;;
50012;SDS011;35901;48.694;9.476;2022-11-15T16:19:02;7.47;;;6.33;;
50012;SDS011;35901;48.694;9.476;2022-11-15T16:21:29;8.30;;;5.20;;
50012;SDS011;35901;48.694;9.476;2022-11-15T16:23:55;6.50;;;5.90;;
50012;SDS011;35901;48.694;9.476;2022-11-15T16:26:25;7.50;;;6.23;;
50012;SDS011;35901;48.694;9.476;2022-11-15T16:28:52;8.43;;;5.77;;
50012;SDS011;35901;48.694;9.476;2022-11-15T16:31:18;7.87;;;6.30;;
50012;SDS011;35901;48.694;9.476;2022-11-15T16:33:46;6.27;;;5.40;;
50012;SDS011;35901;48.694;9.476;2022-11-15T16:36:15;5.97;;;5.37;;
50012;SDS011;35901;48.694;9.476;2022-11-15T16:38:43;5.83;;;5.10;;
50012;SDS011;35901;48.694;9.476;2022-11-15T16:41:09;5.93;;;5.30;;
50012;SDS011;35901;48.694;9.476;2022-11-15T16:43:35;6.73;;;5.67;;
50012;SDS011;35901;48.694;9.476;2022-11-15T16:46:13;5.90;;;4.47;;
50012;SDS011;35901;48.694;9.476;2022-11-15T16:48:47;4.93;;;4.53;;
50012;SDS011;35901;48.694;9.476;2022-11-15T16:51:13;5.17;;;4.67;;
50012;SDS011;35901;48.694;9.476;2022-11-15T16:53:40;6.40;;;5.00;;
50012;SDS011;35901;48.694;9.476;2022-11-15T16:56:23;5.70;;;4.70;;
50012;SDS011;35901;48.694;9.476;2022-11-15T16:58:53;6.00;;;4.47;;
50012;SDS011;35901;48.694;9.476;2022-11-15T17:01:52;5.83;;;5.07;;
50012;SDS011;35901;48.694;9.476;2022-11-15T17:04:15;7.93;;;5.27;;
50012;SDS011;35901;48.694;9.476;2022-11-15T17:06:51;5.97;;;5.20;;
50012;SDS011;35901;48.694;9.476;2022-11-15T17:09:18;5.80;;;5.20;;
50012;SDS011;35901;48.694;9.476;2022-11-15T17:11:47;8.57;;;5.80;;
50012;SDS011;35901;48.694;9.476;2022-11-15T17:14:13;8.63;;;5.37;;
50012;SDS011;35901;48.694;9.476;2022-11-15T17:16:40;5.27;;;4.70;;
50012;SDS011;35901;48.694;9.476;2022-11-15T17:19:15;6.97;;;5.33;;
50012;SDS011;35901;48.694;9.476;2022-11-15T17:21:43;5.50;;;4.97;;
50012;SDS011;35901;48.694;9.476;2022-11-15T17:24:09;7.40;;;5.73;;
50012;SDS011;35901;48.694;9.476;2022-11-15T17:26:36;7.50;;;5.40;;
50012;SDS011;35901;48.694;9.476;2022-11-15T17:29:02;6.13;;;5.47;;
50012;SDS011;35901;48.694;9.476;2022-11-15T17:31:31;7.73;;;6.20;;
50012;SDS011;35901;48.694;9.476;2022-11-15T17:34:01;8.10;;;6.60;;
50012;SDS011;35901;48.694;9.476;2022-11-15T17:36:29;10.03;;;6.43;;
50012;SDS011;35901;48.694;9.476;2022-11-15T17:38:55;7.10;;;6.13;;
50012;SDS011;35901;48.694;9.476;2022-11-15T17:41:21;8.80;;;6.67;;
50012;SDS011;35901;48.694;9.476;2022-11-15T17:43:47;8.50;;;6.70;;
50012;SDS011;35901;48.694;9.476;2022-11-15T17:46:17;10.17;;;6.93;;
50012;SDS011;35901;48.694;9.476;2022-11-15T17:48:45;10.43;;;7.20;;
50012;SDS011;35901;48.694;9.476;2022-11-15T17:51:12;10.47;;;7.33;;
50012;SDS011;35901;48.694;9.476;2022-11-15T17:53:40;11.07;;;8.33;;
50012;SDS011;35901;48.694;9.476;2022-11-15T17:56:11;10.23;;;7.60;;
50012;SDS011;35901;48.694;9.476;2022-11-15T17:58:39;12.13;;;8.70;;
50012;SDS011;35901;48.694;9.476;2022-11-15T18:03:56;10.43;;;8.13;;
50012;SDS011;35901;48.694;9.476;2022-11-15T18:08:55;10.27;;;7.47;;